Terminal Aerodrome Forecast
Issued by NWS Knoxville/Tri Cities, TN

Home | Current Version | Previous Version | Text Only | Print | Product List | Glossary On
Versions: 1 2 3 4 5 6 7 8 9 10 11 12 13 14 15 16 17
000
FTUS44 KMRX 051120
TAFTRI
TAF
KTRI 051120Z 0512/0612 00000KT 4SM BR OVC004
      TEMPO 0512/0515 P6SM NSW OVC008
     FM051500 03003KT P6SM OVC015
     FM051800 05004KT P6SM BKN025
     FM052100 07006KT P6SM SCT040 BKN150
     FM060300 09008KT 4SM -RA OVC040=

USA.gov is the U.S. government's official web portal to all federal, state and local government web resources and services.